Time;durP1;ratioP1;P1;durP2;ratioP2;P2;SDS_P1;SDS_P2;PMS_P1;PMS_P2;Temp;Humidity;BMP_temperature;BMP_pressure;BME280_temperature;BME280_humidity;BME280_pressure;Samples;Min_cycle;Max_cycle;Signal;HPM_P1;HPM_P2
2023/07/10 00:00:04;;;;;;;7.32;3.65;;;20.10;99.90;;;;;;5115813;28;19923;-58
2023/07/10 00:02:31;;;;;;;10.95;4.10;;;20.10;99.90;;;;;;5129595;27;20055;-58
2023/07/10 00:04:57;;;;;;;9.07;4.50;;;20.10;99.90;;;;;;5136364;27;20051;-58
2023/07/10 00:07:23;;;;;;;7.15;4.35;;;20.10;99.90;;;;;;5118322;27;20051;-56
2023/07/10 00:09:49;;;;;;;7.10;3.97;;;20.10;99.90;;;;;;5136197;27;20050;-57
2023/07/10 00:12:20;;;;;;;11.30;5.50;;;20.10;99.90;;;;;;5136105;27;20115;-57
2023/07/10 00:14:46;;;;;;;8.30;3.97;;;20.10;99.90;;;;;;5136101;27;20089;-58
2023/07/10 00:17:14;;;;;;;9.65;4.45;;;20.00;99.90;;;;;;5136306;27;20079;-56
2023/07/10 00:19:41;;;;;;;9.90;4.50;;;20.00;99.90;;;;;;5136153;27;20122;-58
2023/07/10 00:22:07;;;;;;;9.15;4.45;;;20.00;99.90;;;;;;5135834;27;20558;-58
2023/07/10 00:24:32;;;;;;;10.52;5.03;;;20.00;99.90;;;;;;5136233;27;20127;-58
2023/07/10 00:26:58;;;;;;;8.13;4.13;;;20.00;99.90;;;;;;5100458;27;20544;-58
2023/07/10 00:29:31;;;;;;;10.85;4.80;;;20.00;99.90;;;;;;5135767;27;20039;-58
2023/07/10 00:31:58;;;;;;;10.13;4.60;;;20.00;99.90;;;;;;5135995;27;20461;-58
2023/07/10 00:34:25;;;;;;;8.07;3.83;;;20.00;99.90;;;;;;5135912;27;20456;-58
2023/07/10 00:36:52;;;;;;;9.77;4.40;;;20.00;99.90;;;;;;5135705;27;20384;-58
2023/07/10 00:39:28;;;;;;;7.72;4.50;;;20.00;99.90;;;;;;5100507;27;20043;-58
2023/07/10 00:42:06;;;;;;;10.33;4.10;;;20.00;99.90;;;;;;5117387;27;20502;-57
2023/07/10 00:44:47;;;;;;;14.18;5.13;;;19.90;99.90;;;;;;5135711;27;20043;-57
2023/07/10 00:47:35;;;;;;;7.55;4.65;;;20.00;99.90;;;;;;5135543;27;20043;-58
2023/07/10 00:50:10;;;;;;;8.95;4.40;;;19.90;99.90;;;;;;5135583;27;20083;-58
2023/07/10 00:52:39;;;;;;;8.60;4.55;;;19.90;99.90;;;;;;5135541;27;20130;-58
2023/07/10 00:55:18;;;;;;;9.02;4.95;;;19.90;99.90;;;;;;5135329;27;20050;-58
2023/07/10 00:57:48;;;;;;;10.10;5.55;;;19.90;99.90;;;;;;5135608;27;20396;-57
2023/07/10 01:00:20;;;;;;;10.23;5.70;;;19.90;99.90;;;;;;5135015;27;20054;-58
2023/07/10 01:02:46;;;;;;;13.98;6.63;;;19.80;99.90;;;;;;5134195;27;20059;-58
2023/07/10 01:05:12;;;;;;;11.18;5.97;;;19.80;99.90;;;;;;5117122;27;20049;-58
2023/07/10 01:07:43;;;;;;;11.35;7.00;;;19.80;99.90;;;;;;5135057;27;20118;-58
2023/07/10 01:10:10;;;;;;;12.15;7.32;;;19.80;99.90;;;;;;5116802;27;20043;-58
2023/07/10 01:12:38;;;;;;;13.82;7.70;;;19.80;99.90;;;;;;5134988;27;20039;-58
2023/07/10 01:15:06;;;;;;;15.32;7.40;;;19.70;99.90;;;;;;5135095;27;20051;-58
2023/07/10 01:17:32;;;;;;;15.80;7.88;;;19.70;99.90;;;;;;5135025;27;20039;-58
2023/07/10 01:20:25;;;;;;;15.77;7.68;;;19.70;99.90;;;;;;5116908;27;20051;-58
2023/07/10 01:22:50;;;;;;;15.57;8.20;;;19.60;99.90;;;;;;5116541;27;20100;-57
2023/07/10 01:25:16;;;;;;;14.80;7.40;;;19.60;99.90;;;;;;5134751;27;20139;-57
2023/07/10 01:27:42;;;;;;;15.15;8.35;;;19.60;99.90;;;;;;5134517;27;20043;-58
2023/07/10 01:30:31;;;;;;;14.98;7.63;;;19.60;99.90;;;;;;5134884;27;20051;-58
2023/07/10 01:32:57;;;;;;;14.70;7.20;;;19.50;99.90;;;;;;5134763;27;20043;-58
2023/07/10 01:35:26;;;;;;;14.65;8.18;;;19.50;99.90;;;;;;5134646;27;20134;-58
2023/07/10 01:37:51;;;;;;;14.25;7.88;;;19.50;99.90;;;;;;5134771;27;20126;-58
2023/07/10 01:40:27;;;;;;;13.15;7.70;;;19.50;99.90;;;;;;5134697;27;20111;-58
2023/07/10 01:42:56;;;;;;;13.82;8.02;;;19.50;99.90;;;;;;5134756;27;20051;-58
2023/07/10 01:45:23;;;;;;;15.82;7.28;;;19.50;99.90;;;;;;5134681;27;20460;-58
2023/07/10 01:47:52;;;;;;;13.52;8.30;;;19.50;99.90;;;;;;5134616;27;20126;-58
2023/07/10 01:50:19;;;;;;;13.18;7.20;;;19.50;99.90;;;;;;5134501;27;20077;-58
2023/07/10 01:52:44;;;;;;;;;;;19.50;99.90;;;;;;5134706;28;20058;-58
2023/07/10 01:55:12;;;;;;;13.35;7.63;;;19.50;99.90;;;;;;5134567;28;19919;-58
2023/07/10 01:57:38;;;;;;;11.48;7.38;;;19.40;99.90;;;;;;5134817;28;20035;-58
2023/07/10 02:00:04;;;;;;;12.20;7.47;;;19.50;99.90;;;;;;5134499;28;20174;-58
2023/07/10 02:02:30;;;;;;;14.48;7.07;;;19.50;99.90;;;;;;5134442;28;20058;-58
2023/07/10 02:04:56;;;;;;;10.88;7.18;;;19.50;99.90;;;;;;5134423;28;20052;-58
2023/07/10 02:07:21;;;;;;;13.70;7.68;;;19.40;99.90;;;;;;5134196;28;20377;-58
2023/07/10 02:09:47;;;;;;;11.77;7.47;;;19.40;99.90;;;;;;5134379;28;20130;-58
2023/07/10 02:12:13;;;;;;;13.15;7.60;;;19.40;99.90;;;;;;5135191;27;20051;-58
2023/07/10 02:14:39;;;;;;;13.57;7.88;;;19.40;99.90;;;;;;5138603;27;20043;-58
2023/07/10 02:17:05;;;;;;;13.60;7.93;;;19.40;99.90;;;;;;5138534;27;20051;-58
2023/07/10 02:19:31;;;;;;;10.88;6.68;;;19.40;99.90;;;;;;5138250;27;20406;-58
2023/07/10 02:21:57;;;;;;;11.18;6.88;;;19.40;99.90;;;;;;5138291;27;20043;-58
2023/07/10 02:24:23;;;;;;;11.60;6.55;;;19.40;99.90;;;;;;5138394;27;20046;-58
2023/07/10 02:26:48;;;;;;;10.32;6.20;;;19.30;99.90;;;;;;5120554;27;20075;-59
2023/07/10 02:29:14;;;;;;;10.52;6.10;;;19.30;99.90;;;;;;5138240;27;20053;-58
2023/07/10 02:31:40;;;;;;;12.30;6.55;;;19.30;99.90;;;;;;5120177;27;20050;-58
2023/07/10 02:34:05;;;;;;;11.75;5.97;;;19.30;99.90;;;;;;5138205;27;20519;-58
2023/07/10 02:36:32;;;;;;;10.70;6.30;;;19.30;99.90;;;;;;5120026;27;20047;-58
2023/07/10 02:38:58;;;;;;;11.35;6.88;;;19.30;99.90;;;;;;5137873;27;20450;-58
2023/07/10 02:41:24;;;;;;;8.98;5.78;;;19.30;99.90;;;;;;5119710;27;20051;-58
2023/07/10 02:43:50;;;;;;;10.82;5.72;;;19.30;99.90;;;;;;5138024;27;20078;-58
2023/07/10 02:46:16;;;;;;;10.73;5.78;;;19.20;99.90;;;;;;5119577;27;20100;-59
2023/07/10 02:48:41;;;;;;;12.32;5.75;;;19.20;99.90;;;;;;5137870;27;20042;-58
2023/07/10 02:51:07;;;;;;;12.50;6.65;;;19.20;99.90;;;;;;5119463;27;20051;-58
2023/07/10 02:53:33;;;;;;;12.25;6.88;;;19.20;99.90;;;;;;5137830;27;20050;-58
2023/07/10 02:55:59;;;;;;;12.52;6.55;;;19.20;99.90;;;;;;5137775;27;20046;-58
2023/07/10 02:58:25;;;;;;;11.48;6.50;;;19.20;99.90;;;;;;5137796;27;20501;-58
2023/07/10 03:01:01;;;;;;;13.10;7.07;;;19.20;99.90;;;;;;5137643;27;20039;-58
2023/07/10 03:03:28;;;;;;;11.05;6.78;;;19.20;99.90;;;;;;5137509;27;20062;-58
2023/07/10 03:05:57;;;;;;;;;;;19.20;99.90;;;;;;5137836;27;20492;-59
2023/07/10 03:08:23;;;;;;;10.98;7.35;;;19.20;99.90;;;;;;5137829;27;19923;-59
2023/07/10 03:10:57;;;;;;;11.75;7.18;;;19.20;99.90;;;;;;5137974;27;20399;-58
2023/07/10 03:13:22;;;;;;;14.00;7.38;;;19.20;99.90;;;;;;5137450;27;20047;-58
2023/07/10 03:16:04;;;;;;;14.57;7.75;;;19.20;99.90;;;;;;5119038;27;20043;-58
2023/07/10 03:18:29;;;;;;;12.00;7.28;;;19.20;99.90;;;;;;5137127;27;20543;-58
2023/07/10 03:20:55;;;;;;;12.25;7.53;;;19.20;99.90;;;;;;5137268;27;20043;-58
2023/07/10 03:23:21;;;;;;;11.60;7.05;;;19.20;99.90;;;;;;5137132;27;20092;-58
2023/07/10 03:25:47;;;;;;;11.68;7.80;;;19.20;99.90;;;;;;5136361;27;20075;-58
2023/07/10 03:28:14;;;;;;;14.07;7.22;;;19.20;99.90;;;;;;5137003;27;20082;-58
2023/07/10 03:30:40;;;;;;;11.48;6.95;;;19.10;99.90;;;;;;5136844;27;20047;-58
2023/07/10 03:33:06;;;;;;;13.05;7.40;;;19.10;99.90;;;;;;5137076;27;20051;-58
2023/07/10 03:35:32;;;;;;;10.10;6.40;;;19.10;99.90;;;;;;5119404;27;20038;-58
2023/07/10 03:37:58;;;;;;;11.02;7.03;;;19.10;99.90;;;;;;5137051;27;20043;-58
2023/07/10 03:40:23;;;;;;;9.57;6.25;;;19.10;99.90;;;;;;5137084;27;20051;-58
2023/07/10 03:42:49;;;;;;;11.40;6.13;;;19.10;99.90;;;;;;5136842;27;20035;-58
2023/07/10 03:45:15;;;;;;;11.00;5.88;;;19.10;99.90;;;;;;5136838;27;20074;-58
2023/07/10 03:47:40;;;;;;;10.38;5.97;;;19.10;99.90;;;;;;5136459;27;20043;-58
2023/07/10 03:50:07;;;;;;;10.13;5.90;;;19.10;99.90;;;;;;5136709;27;20047;-58
2023/07/10 03:52:32;;;;;;;10.27;5.80;;;19.10;99.90;;;;;;5136734;27;20042;-58
2023/07/10 03:54:58;;;;;;;10.43;5.38;;;19.10;99.90;;;;;;5118474;27;20395;-58
2023/07/10 03:57:24;;;;;;;11.23;5.88;;;19.10;99.90;;;;;;5136540;27;20043;-58
2023/07/10 03:59:49;;;;;;;9.63;5.05;;;19.10;99.90;;;;;;5118157;27;20494;-58
2023/07/10 04:02:15;;;;;;;10.48;5.75;;;19.10;99.90;;;;;;5136228;27;20094;-58
2023/07/10 04:04:41;;;;;;;8.98;5.20;;;19.10;99.90;;;;;;5136407;27;20051;-58
2023/07/10 04:07:06;;;;;;;9.63;5.68;;;19.10;99.90;;;;;;5136352;27;20047;-58
2023/07/10 04:09:32;;;;;;;10.52;5.25;;;19.10;99.90;;;;;;5136370;27;20499;-58
2023/07/10 04:11:57;;;;;;;11.80;5.95;;;19.10;99.90;;;;;;5136196;27;20515;-58
2023/07/10 04:14:23;;;;;;;8.98;4.50;;;19.10;99.90;;;;;;5136021;27;20051;-58
2023/07/10 04:16:53;;;;;;;9.05;4.80;;;19.10;99.90;;;;;;5136051;27;20044;-58
2023/07/10 04:19:19;;;;;;;8.55;4.95;;;19.10;99.90;;;;;;5136225;27;20377;-58
2023/07/10 04:21:46;;;;;;;9.75;4.63;;;19.10;99.90;;;;;;5136093;27;20051;-58
2023/07/10 04:24:12;;;;;;;;;;;19.10;99.90;;;;;;5136500;27;20498;-58
2023/07/10 04:26:38;;;;;;;7.85;4.88;;;19.10;99.90;;;;;;5135959;27;19919;-58
2023/07/10 04:29:05;;;;;;;;;;;19.10;99.90;;;;;;5136256;27;20047;-58
2023/07/10 04:31:31;;;;;;;7.88;4.00;;;19.10;99.90;;;;;;5135834;27;20391;-58
2023/07/10 04:33:57;;;;;;;9.05;3.97;;;19.10;99.90;;;;;;5117703;27;20043;-58
2023/07/10 04:36:24;;;;;;;7.68;4.55;;;19.10;99.90;;;;;;5117492;27;20059;-58
2023/07/10 04:38:49;;;;;;;10.32;5.18;;;19.10;99.90;;;;;;5135724;27;20096;-58
2023/07/10 04:41:22;;;;;;;9.20;4.60;;;19.10;99.90;;;;;;5117668;27;20047;-58
2023/07/10 04:43:48;;;;;;;8.70;5.00;;;19.00;99.90;;;;;;5135628;27;20047;-58
2023/07/10 04:46:16;;;;;;;8.45;4.10;;;19.10;99.90;;;;;;5135684;27;20054;-58
2023/07/10 04:48:42;;;;;;;8.23;4.70;;;19.10;99.90;;;;;;5135554;27;20050;-58
2023/07/10 04:51:09;;;;;;;8.57;4.55;;;19.10;99.90;;;;;;5135525;27;20121;-58
2023/07/10 04:53:35;;;;;;;5.95;3.65;;;19.10;99.90;;;;;;5135587;27;20053;-58
2023/07/10 04:56:04;;;;;;;7.03;3.90;;;19.20;99.90;;;;;;5135643;27;20051;-59
2023/07/10 04:58:43;;;;;;;5.70;3.05;;;19.10;99.90;;;;;;5135054;27;20080;-59
2023/07/10 05:01:09;;;;;;;7.20;3.00;;;19.10;99.90;;;;;;5135455;27;20047;-58
2023/07/10 05:03:37;;;;;;;5.65;2.47;;;19.10;99.90;;;;;;5134999;27;20047;-58
2023/07/10 05:06:02;;;;;;;9.95;2.78;;;19.10;99.90;;;;;;5135256;27;20042;-57
2023/07/10 05:08:29;;;;;;;6.45;2.63;;;19.10;99.90;;;;;;5135064;27;20118;-57
2023/07/10 05:10:54;;;;;;;;;;;19.10;99.90;;;;;;5117400;27;20092;-57
2023/07/10 05:13:21;;;;;;;4.60;2.00;;;19.00;99.90;;;;;;5117104;27;20377;-57
2023/07/10 05:15:48;;;;;;;3.90;2.20;;;19.00;99.90;;;;;;5117119;27;20054;-57
2023/07/10 05:18:14;;;;;;;4.15;1.83;;;18.90;99.90;;;;;;5135096;27;20046;-57
2023/07/10 05:20:43;;;;;;;4.95;2.00;;;18.90;99.90;;;;;;5135109;27;20035;-57
2023/07/10 05:23:09;;;;;;;3.97;2.00;;;18.90;99.90;;;;;;5116548;27;20047;-57
2023/07/10 05:25:35;;;;;;;4.53;1.67;;;18.90;99.90;;;;;;5134782;27;20130;-59
2023/07/10 05:28:01;;;;;;;5.05;2.20;;;18.90;99.90;;;;;;5134901;27;20063;-57
2023/07/10 05:30:27;;;;;;;4.57;2.25;;;18.90;99.90;;;;;;5116787;27;20122;-57
2023/07/10 05:32:53;;;;;;;4.05;1.92;;;18.90;99.90;;;;;;5134887;27;20047;-57
2023/07/10 05:35:19;;;;;;;4.43;1.90;;;18.90;99.90;;;;;;5134874;27;20464;-57
2023/07/10 05:37:44;;;;;;;7.40;1.92;;;18.90;99.90;;;;;;5134763;27;20499;-56
2023/07/10 05:40:10;;;;;;;4.60;2.10;;;18.90;99.90;;;;;;5116424;27;20494;-56
2023/07/10 05:42:37;;;;;;;4.28;2.05;;;18.90;99.90;;;;;;5116446;27;20529;-56
2023/07/10 05:45:03;;;;;;;6.00;2.58;;;19.00;99.90;;;;;;5116387;27;20053;-56
2023/07/10 05:47:29;;;;;;;5.47;2.40;;;19.00;99.90;;;;;;5134085;27;20123;-58
2023/07/10 05:49:55;;;;;;;4.72;2.30;;;19.00;99.90;;;;;;5134545;27;20074;-56
2023/07/10 05:52:20;;;;;;;6.97;2.88;;;19.10;99.90;;;;;;5134592;27;20043;-56
2023/07/10 05:54:46;;;;;;;5.22;2.60;;;19.10;99.90;;;;;;5134482;28;20498;-56
2023/07/10 05:57:12;;;;;;;5.00;2.47;;;19.10;99.90;;;;;;5116900;28;20384;-56
2023/07/10 05:59:37;;;;;;;6.13;2.65;;;19.20;99.90;;;;;;5134539;28;20418;-57
2023/07/10 06:02:03;;;;;;;5.20;2.50;;;19.20;99.90;;;;;;5115996;28;20074;-55
2023/07/10 06:04:29;;;;;;;6.45;2.90;;;19.20;99.90;;;;;;5134524;28;20055;-55
2023/07/10 06:06:55;;;;;;;7.10;2.85;;;19.30;99.90;;;;;;5134280;28;20043;-56
2023/07/10 06:09:20;;;;;;;5.80;2.40;;;19.30;99.90;;;;;;5134065;28;20039;-55
2023/07/10 06:11:49;;;;;;;5.20;2.50;;;19.20;99.90;;;;;;5116672;28;20503;-55
2023/07/10 06:14:15;;;;;;;4.65;2.03;;;19.20;99.90;;;;;;5134259;28;20054;-54
2023/07/10 06:16:40;;;;;;;6.18;1.98;;;19.20;99.90;;;;;;5134347;28;20397;-55
2023/07/10 06:19:06;;;;;;;6.97;2.78;;;19.30;99.90;;;;;;5134225;28;20043;-54
2023/07/10 06:21:31;;;;;;;4.78;2.25;;;19.20;99.90;;;;;;5133978;28;20086;-55
2023/07/10 06:23:57;;;;;;;5.50;2.25;;;19.20;99.90;;;;;;5134060;28;20078;-54
2023/07/10 06:26:23;;;;;;;5.40;1.98;;;19.30;99.90;;;;;;5115977;28;20403;-53
2023/07/10 06:28:48;;;;;;;4.55;2.20;;;19.40;99.90;;;;;;5134164;28;20078;-54
2023/07/10 06:31:14;;;;;;;4.45;1.88;;;19.40;99.90;;;;;;5134214;28;20065;-53
2023/07/10 06:33:40;;;;;;;6.00;2.38;;;19.40;99.90;;;;;;5134042;28;20039;-54
2023/07/10 06:36:06;;;;;;;4.55;1.60;;;19.50;99.90;;;;;;5116003;28;20197;-53
2023/07/10 06:38:33;;;;;;;5.70;1.83;;;19.50;99.90;;;;;;5115845;28;20066;-52
2023/07/10 06:40:58;;;;;;;5.97;1.92;;;19.50;99.90;;;;;;5134118;28;20483;-56
2023/07/10 06:43:24;;;;;;;4.57;2.05;;;19.50;99.90;;;;;;5134116;28;20083;-50
2023/07/10 06:45:50;;;;;;;6.47;1.70;;;19.50;99.90;;;;;;5134151;28;20043;-55
2023/07/10 06:48:17;;;;;;;4.03;1.52;;;19.50;99.90;;;;;;5133985;28;20039;-54
2023/07/10 06:51:00;;;;;;;6.32;2.20;;;19.60;99.90;;;;;;5133831;28;20502;-52
2023/07/10 06:53:26;;;;;;;5.75;1.55;;;19.60;99.90;;;;;;5134203;28;20047;-51
2023/07/10 06:55:58;;;;;;;4.82;1.67;;;19.70;99.90;;;;;;5134003;28;20429;-49
2023/07/10 06:58:24;;;;;;;3.22;1.70;;;19.80;99.90;;;;;;5133911;27;20134;-52
2023/07/10 07:00:51;;;;;;;4.57;1.70;;;20.00;99.90;;;;;;5136966;27;20043;-51
2023/07/10 07:03:17;;;;;;;5.97;1.65;;;20.10;99.90;;;;;;5137861;27;20059;-54
2023/07/10 07:05:44;;;;;;;5.28;1.55;;;20.20;99.90;;;;;;5137319;27;20043;-53
2023/07/10 07:08:10;;;;;;;3.85;1.50;;;20.20;99.90;;;;;;5137466;27;20042;-55
2023/07/10 07:10:42;;;;;;;4.88;1.80;;;20.30;99.90;;;;;;5119358;27;20054;-52
2023/07/10 07:13:09;;;;;;;5.13;1.35;;;20.40;99.90;;;;;;5137817;27;20097;-53
2023/07/10 07:15:35;;;;;;;4.97;1.48;;;20.40;99.90;;;;;;5119079;27;20038;-54
2023/07/10 07:18:01;;;;;;;5.80;1.80;;;20.40;99.90;;;;;;5137127;27;20046;-53
2023/07/10 07:20:27;;;;;;;2.53;1.13;;;20.50;99.90;;;;;;5137324;27;20043;-54
2023/07/10 07:22:52;;;;;;;5.40;1.50;;;20.60;99.90;;;;;;5137247;27;20503;-54
2023/07/10 07:25:18;;;;;;;4.55;1.40;;;20.70;99.90;;;;;;5137357;27;20050;-54
2023/07/10 07:27:44;;;;;;;4.70;1.13;;;20.80;99.90;;;;;;5137363;27;20531;-54
2023/07/10 07:30:10;;;;;;;4.57;1.27;;;20.90;99.90;;;;;;5137062;27;20050;-54
2023/07/10 07:32:36;;;;;;;;;;;21.10;99.90;;;;;;5118864;27;20507;-54
2023/07/10 07:35:01;;;;;;;3.22;1.33;;;21.40;99.90;;;;;;5118683;27;19928;-54
2023/07/10 07:37:27;;;;;;;2.90;1.15;;;21.70;99.90;;;;;;5137119;27;20058;-53
2023/07/10 07:39:54;;;;;;;3.47;1.23;;;21.90;99.90;;;;;;5136903;27;20502;-54
2023/07/10 07:42:20;;;;;;;3.55;1.40;;;21.90;99.90;;;;;;5136756;27;20411;-55
2023/07/10 07:44:46;;;;;;;2.53;1.15;;;21.90;99.90;;;;;;5136524;27;20047;-54
2023/07/10 07:47:12;;;;;;;4.70;1.30;;;21.80;99.90;;;;;;5117780;27;20053;-54
2023/07/10 07:49:37;;;;;;;5.53;1.40;;;21.70;99.90;;;;;;5136280;27;20097;-55
2023/07/10 07:52:03;;;;;;;5.30;1.20;;;21.60;99.90;;;;;;5136549;27;20051;-55
2023/07/10 07:54:29;;;;;;;3.75;1.23;;;21.50;99.90;;;;;;5136887;27;20039;-54
2023/07/10 07:56:55;;;;;;;5.15;1.30;;;21.40;99.90;;;;;;5136665;27;20043;-55
2023/07/10 07:59:22;;;;;;;4.30;1.20;;;21.40;99.90;;;;;;5136587;27;20104;-54
2023/07/10 08:01:49;;;;;;;6.63;1.20;;;21.40;99.90;;;;;;5136230;27;20093;-55
2023/07/10 08:04:17;;;;;;;5.15;1.40;;;21.30;99.90;;;;;;5136410;27;20180;-54
2023/07/10 08:06:43;;;;;;;6.10;1.50;;;21.30;99.90;;;;;;5118802;27;20076;-53
2023/07/10 08:09:09;;;;;;;2.40;0.98;;;21.30;99.90;;;;;;5136370;27;20476;-55
2023/07/10 08:11:35;;;;;;;5.18;1.00;;;21.20;99.90;;;;;;5117879;27;20039;-55
2023/07/10 08:14:00;;;;;;;5.63;1.40;;;21.20;99.90;;;;;;5136234;27;20049;-52
2023/07/10 08:16:26;;;;;;;2.83;1.00;;;21.20;99.90;;;;;;5136356;27;20043;-54
2023/07/10 08:18:52;;;;;;;4.85;1.10;;;21.10;99.90;;;;;;5136739;27;20069;-55
2023/07/10 08:21:18;;;;;;;2.45;0.88;;;21.10;99.90;;;;;;5136130;27;20071;-54
2023/07/10 08:23:44;;;;;;;5.65;1.02;;;21.10;99.90;;;;;;5135954;27;20503;-55
2023/07/10 08:26:10;;;;;;;5.95;1.20;;;21.10;99.90;;;;;;5117781;27;20047;-54
2023/07/10 08:28:35;;;;;;;5.70;1.10;;;21.10;99.90;;;;;;5135961;27;20047;-55
2023/07/10 08:31:02;;;;;;;5.25;1.05;;;21.10;99.90;;;;;;5135962;27;20047;-53
2023/07/10 08:33:28;;;;;;;5.80;1.00;;;21.10;99.90;;;;;;5136157;27;20399;-55
2023/07/10 08:35:59;;;;;;;2.42;0.98;;;21.20;99.90;;;;;;5117353;27;20521;-55
2023/07/10 08:38:25;;;;;;;6.43;1.10;;;21.10;99.90;;;;;;5135828;27;20043;-52
2023/07/10 08:40:56;;;;;;;5.85;0.98;;;21.10;99.90;;;;;;5135750;27;20123;-54
2023/07/10 08:43:30;;;;;;;2.88;0.90;;;21.00;99.90;;;;;;5135685;27;20051;-53
2023/07/10 08:46:05;;;;;;;4.97;1.20;;;21.00;99.90;;;;;;5135560;27;20043;-54
2023/07/10 08:48:34;;;;;;;6.40;1.17;;;21.10;99.90;;;;;;5135606;27;20121;-54
2023/07/10 08:51:25;;;;;;;2.83;0.95;;;21.00;99.90;;;;;;5135549;27;20043;-55
2023/07/10 08:53:57;;;;;;;3.85;1.10;;;21.10;99.90;;;;;;5125818;27;20059;-54
2023/07/10 08:56:27;;;;;;;3.08;0.82;;;21.10;99.90;;;;;;5135418;27;20491;-55
2023/07/10 08:58:59;;;;;;;4.47;1.10;;;21.10;99.90;;;;;;5135413;27;20074;-55
2023/07/10 09:01:33;;;;;;;7.07;1.30;;;21.20;99.90;;;;;;5135586;27;20108;-55
2023/07/10 09:04:00;;;;;;;3.75;1.00;;;21.20;99.90;;;;;;5135385;27;20174;-55
2023/07/10 09:06:44;;;;;;;3.13;0.90;;;21.20;99.90;;;;;;5117032;27;20122;-56
2023/07/10 09:09:25;;;;;;;4.47;1.92;;;21.20;99.90;;;;;;5135475;27;20429;-55
2023/07/10 09:11:52;;;;;;;5.07;1.00;;;21.30;99.90;;;;;;5117211;27;20051;-53
2023/07/10 09:14:27;;;;;;;2.75;0.90;;;21.30;99.90;;;;;;5116999;27;20047;-55
2023/07/10 09:16:54;;;;;;;4.22;1.27;;;21.30;99.90;;;;;;5116873;27;20399;-56
2023/07/10 09:19:21;;;;;;;4.82;1.20;;;21.40;99.90;;;;;;5134831;27;20042;-56
2023/07/10 09:21:47;;;;;;;6.00;1.10;;;21.40;99.90;;;;;;5134262;27;20491;-54
2023/07/10 09:24:22;;;;;;;6.68;0.95;;;21.50;99.90;;;;;;5134872;27;20047;-54
2023/07/10 09:26:48;;;;;;;4.72;0.77;;;21.50;99.90;;;;;;5134883;27;20054;-56
2023/07/10 09:29:24;;;;;;;3.70;1.23;;;21.60;99.90;;;;;;5134689;27;20407;-55
2023/07/10 09:32:10;;;;;;;3.88;1.10;;;21.60;99.90;;;;;;5116847;27;20055;-54
2023/07/10 09:34:46;;;;;;;4.43;0.80;;;21.60;99.90;;;;;;5134909;27;20047;-55
2023/07/10 09:37:17;;;;;;;3.92;1.00;;;21.60;99.90;;;;;;5134860;27;20050;-46
2023/07/10 09:39:44;;;;;;;4.22;0.80;;;21.70;99.90;;;;;;5134746;27;20062;-46
2023/07/10 09:42:14;;;;;;;;;;;21.80;99.90;;;;;;5134928;27;20082;-47
2023/07/10 09:44:54;;;;;;;4.88;1.65;;;21.90;99.90;;;;;;5116653;28;19919;-50
2023/07/10 09:47:21;;;;;;;2.85;0.95;;;22.00;99.90;;;;;;5116328;28;20072;-47
2023/07/10 09:49:56;;;;;;;5.97;1.05;;;22.10;99.90;;;;;;5116448;28;20047;-48
2023/07/10 09:52:26;;;;;;;5.15;1.10;;;22.10;99.90;;;;;;5134595;27;20049;-46
2023/07/10 09:55:07;;;;;;;4.22;0.70;;;22.20;99.90;;;;;;5134556;28;20053;-46
2023/07/10 09:57:43;;;;;;;4.68;1.10;;;22.20;99.90;;;;;;5134681;28;20058;-47
2023/07/10 10:00:14;;;;;;;;;;;22.30;99.90;;;;;;5135170;28;20051;-47
2023/07/10 10:02:48;;;;;;;4.35;1.00;;;22.40;99.90;;;;;;5112728;28;20380;-46
2023/07/10 10:05:21;;;;;;;3.30;0.80;;;22.50;99.90;;;;;;5112748;28;20043;-47
2023/07/10 10:07:49;;;;;;;3.22;1.13;;;22.50;99.90;;;;;;5114361;28;20092;-46
2023/07/10 10:10:25;;;;;;;3.72;0.98;;;22.50;99.90;;;;;;5112791;28;20083;-47
2023/07/10 10:13:11;;;;;;;1.42;0.75;;;22.50;99.90;;;;;;5112947;28;20040;-47
2023/07/10 10:15:49;;;;;;;3.50;1.10;;;22.60;99.90;;;;;;5113659;28;20385;-51
2023/07/10 10:18:52;;;;;;;3.53;1.05;;;22.80;99.90;;;;;;5112863;28;20048;-48
2023/07/10 10:21:20;;;;;;;4.35;0.90;;;22.90;99.90;;;;;;5112737;28;20047;-46
2023/07/10 10:23:48;;;;;;;4.35;0.85;;;23.00;99.90;;;;;;5113679;28;20047;-47
2023/07/10 10:26:25;;;;;;;2.80;0.90;;;23.10;99.90;;;;;;5113776;28;20092;-47
2023/07/10 10:29:15;;;;;;;5.22;1.27;;;23.10;99.90;;;;;;5113591;28;20039;-46
2023/07/10 10:31:54;;;;;;;2.70;1.55;;;23.20;99.90;;;;;;5113927;28;20142;-46
2023/07/10 10:34:49;;;;;;;2.35;0.82;;;23.20;99.90;;;;;;5115860;28;20066;-47
2023/07/10 10:37:15;;;;;;;4.63;1.13;;;23.20;99.90;;;;;;5117732;28;20046;-47
2023/07/10 10:40:01;;;;;;;3.42;1.25;;;23.10;99.90;;;;;;5117523;28;20043;-50
2023/07/10 10:42:38;;;;;;;4.45;1.13;;;23.00;99.90;;;;;;5117530;28;20047;-46
2023/07/10 10:45:25;;;;;;;5.38;1.08;;;23.00;99.90;;;;;;5117649;28;20051;-46
2023/07/10 10:48:18;;;;;;;5.07;0.90;;;23.20;99.90;;;;;;5116228;28;20077;-48
2023/07/10 10:50:59;;;;;;;3.75;1.27;;;23.20;99.90;;;;;;5116227;28;20050;-48
2023/07/10 10:53:33;;;;;;;4.13;1.33;;;23.20;99.90;;;;;;5117542;28;20043;-46
2023/07/10 10:56:26;;;;;;;3.90;0.85;;;23.40;99.90;;;;;;5117374;28;20051;-49
2023/07/10 10:59:01;;;;;;;4.38;1.00;;;23.60;99.90;;;;;;5117412;28;20114;-47
2023/07/10 11:01:49;;;;;;;7.35;1.02;;;23.80;99.90;;;;;;5117241;27;20113;-49
2023/07/10 11:04:18;;;;;;;3.53;1.05;;;24.00;99.90;;;;;;5137968;27;20055;-47
2023/07/10 11:06:53;;;;;;;4.50;0.80;;;24.20;99.90;;;;;;5137600;27;20046;-46
2023/07/10 11:09:30;;;;;;;3.53;1.10;;;24.40;99.90;;;;;;5137314;27;20066;-47
2023/07/10 11:11:58;;;;;;;4.72;0.88;;;24.60;99.90;;;;;;5137494;27;20046;-47
2023/07/10 11:14:24;;;;;;;3.60;1.13;;;24.80;99.90;;;;;;5137508;27;20496;-46
2023/07/10 11:16:51;;;;;;;5.28;1.10;;;24.90;99.90;;;;;;5119332;27;20046;-47
2023/07/10 11:19:31;;;;;;;3.72;1.10;;;25.00;99.90;;;;;;5137438;27;20039;-47
2023/07/10 11:22:20;;;;;;;5.97;1.60;;;25.20;99.90;;;;;;5119051;27;20472;-47
2023/07/10 11:24:50;;;;;;;3.65;1.25;;;25.00;99.90;;;;;;5137580;27;20054;-55
2023/07/10 11:27:40;;;;;;;3.65;0.80;;;24.80;99.90;;;;;;5137466;27;20050;-52
2023/07/10 11:30:05;;;;;;;3.28;0.80;;;24.60;99.90;;;;;;5137335;27;20050;-55
2023/07/10 11:32:34;;;;;;;;;;;24.50;99.90;;;;;;5137493;27;20438;-56
2023/07/10 11:35:18;;;;;;;2.58;0.82;;;24.50;99.90;;;;;;5137853;27;20345;-55
2023/07/10 11:37:50;;;;;;;3.22;0.95;;;24.60;99.90;;;;;;5119165;27;20039;-55
2023/07/10 11:40:28;;;;;;;5.63;1.15;;;24.70;99.90;;;;;;5118830;27;20079;-55
2023/07/10 11:43:00;;;;;;;1.88;0.60;;;24.70;99.90;;;;;;5136963;27;20062;-49
2023/07/10 11:45:33;;;;;;;2.97;0.70;;;24.80;99.90;;;;;;5136157;27;20092;-55
2023/07/10 11:47:59;;;;;;;5.50;1.00;;;24.80;99.90;;;;;;5102126;27;20039;-54
2023/07/10 11:50:26;;;;;;;;;;;24.90;99.90;;;;;;5137167;27;20083;-55
2023/07/10 11:53:11;;;;;;;;;;;25.00;99.90;;;;;;5137154;27;20394;-56
2023/07/10 11:56:02;;;;;;;2.45;0.90;;;25.00;99.90;;;;;;5136644;27;19919;-56
2023/07/10 11:58:29;;;;;;;5.60;0.98;;;25.00;99.90;;;;;;5104943;27;20119;-55
2023/07/10 12:01:10;;;;;;;2.92;0.80;;;25.00;99.90;;;;;;5136389;27;20488;-56
2023/07/10 12:03:36;;;;;;;4.32;1.15;;;24.90;99.90;;;;;;5136407;27;20130;-53
2023/07/10 12:06:01;;;;;;;;;;;24.70;99.90;;;;;;5136603;27;20075;-56
2023/07/10 12:08:29;;;;;;;3.63;0.77;;;24.50;99.90;;;;;;5136842;27;19919;-49
2023/07/10 12:10:55;;;;;;;3.42;0.90;;;24.30;99.90;;;;;;5136470;27;20051;-53
2023/07/10 12:13:27;;;;;;;;;;;24.40;99.90;;;;;;5136758;27;20474;-53
2023/07/10 12:15:55;;;;;;;3.63;0.73;;;24.40;99.90;;;;;;5136475;27;19919;-49
2023/07/10 12:18:34;;;;;;;2.80;0.60;;;24.30;99.90;;;;;;5136226;27;20126;-52
2023/07/10 12:21:03;;;;;;;5.63;0.93;;;24.20;99.90;;;;;;5136259;27;20051;-51
2023/07/10 12:23:29;;;;;;;2.65;0.98;;;24.20;99.90;;;;;;5136158;27;20061;-55
2023/07/10 12:25:55;;;;;;;;;;;24.20;99.90;;;;;;5118714;27;20043;-53
2023/07/10 12:28:26;;;;;;;3.73;0.97;;;24.20;99.90;;;;;;5136140;27;19919;-49
2023/07/10 12:30:54;;;;;;;2.63;0.50;;;24.20;99.90;;;;;;5136006;27;20072;-47
2023/07/10 12:33:32;;;;;;;4.13;0.77;;;24.40;99.90;;;;;;5135960;27;20125;-55
2023/07/10 12:36:17;;;;;;;2.08;0.65;;;24.60;99.90;;;;;;5135999;27;20047;-49
2023/07/10 12:38:44;;;;;;;3.85;0.60;;;24.80;99.90;;;;;;5135879;27;20037;-51
2023/07/10 12:41:10;;;;;;;2.70;0.75;;;25.00;99.90;;;;;;5135872;27;20503;-53
2023/07/10 12:43:36;;;;;;;;;;;25.20;99.90;;;;;;5136097;27;20047;-48
2023/07/10 12:46:15;;;;;;;4.10;0.82;;;25.20;99.90;;;;;;5135730;27;20347;-54
2023/07/10 12:48:41;;;;;;;1.67;0.60;;;25.30;99.90;;;;;;5135515;27;20499;-47
2023/07/10 12:51:11;;;;;;;2.67;0.70;;;25.50;99.90;;;;;;5117542;27;20082;-48
2023/07/10 12:53:40;;;;;;;3.15;0.80;;;25.80;99.90;;;;;;5135410;27;20552;-47
2023/07/10 12:56:26;;;;;;;3.40;0.52;;;26.00;99.90;;;;;;5135286;27;20437;-53
2023/07/10 12:59:05;;;;;;;2.23;0.90;;;25.90;99.90;;;;;;5134761;27;20159;-54